Impacts TAF Board
For situational awareness. Not to be used for flight planning purposes.
IDs:

KABQ - Albuquerque Intl, NM, US

Issued at 0531 UTC 07 Dec 2022
Updated at 0733 UTC 07 Dec 2022
Potential Impact None Slight Moderate High
Time0652Z 07/08Z 07/09Z 07/10Z 07/11Z 07/12Z 07/13Z 07/14Z 07/15Z 07/16Z 07/17Z 07/18Z 07/19Z 07/20Z>>
Type OBS PRVL PRVL PRVL PRVL PRVL PRVL PRVL PRVL PRVL PRVL PRVL PRVL PRVL
VIS 10 >6 >6 >6 >6 >6 >6 >6 >6 >6 >6 >6 >6 >6
CIG 200 140 140 140 140 140 140 140 140 140 140 -- -- --
Cover BKN BKN BKN BKN BKN BKN BKN BKN BKN BKN BKN SCT SCT SCT
FltCat VFR VFR VFR VFR VFR VFR VFR VFR VFR VFR VFR VFR VFR VFR
WX -- -- -- -- -- -- -- -- -- -- -- -- -- --
WDir VRB VRB VRB VRB VRB VRB VRB VRB VRB VRB VRB 220 220 220
WSpd 0 3 3 3 3 3 3 3 3 3 3 11 11 11
WGst -- -- -- -- -- -- -- -- -- -- -- 22 22 22
WSHgt -- -- -- -- -- -- -- -- -- -- -- -- -- --
WSDir -- -- -- -- -- -- -- -- -- -- -- -- -- --
WSSpd -- -- -- -- -- -- -- -- -- -- -- -- -- --
R03/21
XWnd VRB VRB VRB VRB VRB VRB VRB VRB VRB VRB VRB -1 -1 -1
XGst -- -- -- -- -- -- -- -- -- -- -- -2 -2 -2
HWnd VRB VRB VRB VRB VRB VRB VRB VRB VRB VRB VRB -11 -11 -11
HGst -- -- -- -- -- -- -- -- -- -- -- -22 -22 -22
R08/26
XWnd VRB VRB VRB VRB VRB VRB VRB VRB VRB VRB VRB -8 -8 -8
XGst -- -- -- -- -- -- -- -- -- -- -- -17 -17 -17
HWnd VRB VRB VRB VRB VRB VRB VRB VRB VRB VRB VRB -7 -7 -7
HGst -- -- -- -- -- -- -- -- -- -- -- -14 -14 -14
R12/30
XWnd VRB VRB VRB VRB VRB VRB VRB VRB VRB VRB VRB -11 -11 -11
XGst -- -- -- -- -- -- -- -- -- -- -- -22 -22 -22
HWnd VRB VRB VRB VRB VRB VRB VRB VRB VRB VRB VRB -0 -0 -0
HGst -- -- -- -- -- -- -- -- -- -- -- -0 -0 -0
Raw TAF
KABQ 070531Z 0706/0806 VRB03KT P6SM SCT070 BKN140
  FM071800 22011G22KT P6SM SCT180
  FM080100 24006KT P6SM SCT120


Raw METAR
KABQ 070652Z 00000KT 10SM SCT140 BKN200 04/01 A3012 RMK AO2 SLP174 T00440011 401330039
KABQ 070552Z 03004KT 10SM FEW070 SCT150 07/01 A3011 RMK AO2 SLP168 T00670006 10111 20067 53013
KABQ 070452Z 30004KT 10SM SCT070 BKN140 BKN200 07/02 A3009 RMK AO2 SLP167 T00670017

METAR Board
Radar Display
Forecast Discussion
For situational awareness. Not to be used for flight planning purposes.